Time;durP1;ratioP1;P1;durP2;ratioP2;P2;SDS_P1;SDS_P2;PMS_P1;PMS_P2;Temp;Humidity;BMP_temperature;BMP_pressure;BME280_temperature;BME280_humidity;BME280_pressure;Samples;Min_cycle;Max_cycle;Signal;HPM_P1;HPM_P2
2023/11/04 00:01:04;;;;;;;5.90;2.97;;;10.80;60.50;;;;;;5030361;28;20444;-53
2023/11/04 00:03:30;;;;;;;6.03;2.73;;;10.90;60.00;;;;;;5028937;28;20510;-52
2023/11/04 00:05:55;;;;;;;3.77;2.60;;;10.90;59.80;;;;;;5027738;28;20177;-58
2023/11/04 00:08:21;;;;;;;4.27;3.10;;;10.80;60.00;;;;;;5028273;28;20225;-53
2023/11/04 00:10:49;;;;;;;4.43;3.10;;;10.70;60.30;;;;;;5027663;28;20169;-57
2023/11/04 00:13:15;;;;;;;5.00;3.20;;;10.40;60.70;;;;;;5024070;28;20242;-52
2023/11/04 00:15:41;;;;;;;3.10;2.80;;;10.20;61.80;;;;;;5025751;28;20460;-53
2023/11/04 00:18:07;;;;;;;4.57;3.17;;;10.10;62.60;;;;;;5026473;28;20199;-52
2023/11/04 00:20:32;;;;;;;3.63;3.10;;;10.10;62.90;;;;;;5022041;28;20335;-55
2023/11/04 00:22:58;;;;;;;4.60;3.20;;;10.00;63.30;;;;;;5025512;28;20192;-54
2023/11/04 00:25:23;;;;;;;4.90;3.10;;;9.80;65.00;;;;;;5024177;28;20185;-52
2023/11/04 00:27:49;;;;;;;6.20;2.80;;;9.70;65.40;;;;;;5026525;28;20221;-51
2023/11/04 00:30:14;;;;;;;5.90;3.40;;;9.50;66.00;;;;;;5022198;28;20555;-51
2023/11/04 00:32:40;;;;;;;3.50;3.20;;;9.50;66.80;;;;;;5024180;28;20192;-54
2023/11/04 00:35:06;;;;;;;6.07;2.77;;;9.60;66.30;;;;;;5023441;28;20220;-56
2023/11/04 00:37:32;;;;;;;6.03;3.47;;;9.70;65.60;;;;;;5025452;28;20775;-56
2023/11/04 00:40:00;;;;;;;3.30;3.00;;;9.90;65.50;;;;;;5022381;28;20254;-57
2023/11/04 00:42:26;;;;;;;6.10;2.70;;;10.00;63.50;;;;;;5025705;28;20522;-54
2023/11/04 00:44:52;;;;;;;4.10;2.97;;;10.30;62.70;;;;;;5025350;28;20602;-53
2023/11/04 00:47:17;;;;;;;4.70;3.43;;;10.60;62.10;;;;;;5028771;28;20608;-53
2023/11/04 00:49:43;;;;;;;4.10;3.23;;;10.80;61.30;;;;;;5029677;28;20580;-53
2023/11/04 00:52:10;;;;;;;7.20;4.30;;;10.80;60.20;;;;;;5023122;28;20605;-53
2023/11/04 00:54:36;;;;;;;6.17;4.20;;;10.80;60.20;;;;;;5029078;28;20189;-52
2023/11/04 00:57:01;;;;;;;5.40;4.67;;;10.90;60.00;;;;;;5028740;28;20431;-52
2023/11/04 00:59:27;;;;;;;7.03;4.90;;;11.00;59.80;;;;;;5026648;28;20546;-53
2023/11/04 01:01:52;;;;;;;8.20;3.67;;;11.10;59.80;;;;;;5024840;28;20189;-53
2023/11/04 01:04:18;;;;;;;4.40;3.10;;;11.10;59.70;;;;;;5028308;28;20675;-54
2023/11/04 01:06:44;;;;;;;5.67;3.40;;;11.10;59.30;;;;;;5034630;28;20311;-54
2023/11/04 01:09:12;;;;;;;3.10;2.47;;;11.10;59.20;;;;;;5031291;28;20604;-51
2023/11/04 01:11:37;;;;;;;3.00;2.43;;;11.20;59.20;;;;;;5022770;28;20232;-51
2023/11/04 01:14:03;;;;;;;2.83;2.60;;;11.20;59.20;;;;;;5026275;28;20463;-53
2023/11/04 01:16:29;;;;;;;11.50;3.20;;;11.20;59.10;;;;;;5029259;28;20679;-51
2023/11/04 01:18:55;;;;;;;4.73;3.47;;;11.20;59.00;;;;;;5028556;28;20627;-54
2023/11/04 01:21:20;;;;;;;5.20;3.17;;;11.20;58.90;;;;;;5030305;28;20189;-53
2023/11/04 01:23:47;;;;;;;4.03;2.97;;;11.20;58.80;;;;;;5028710;28;20277;-52
2023/11/04 01:26:13;;;;;;;3.00;2.70;;;11.20;58.60;;;;;;5027072;28;20201;-52
2023/11/04 01:28:38;;;;;;;4.67;3.00;;;11.20;58.60;;;;;;5027962;28;20455;-55
2023/11/04 01:31:04;;;;;;;4.20;2.70;;;11.30;58.80;;;;;;5028135;28;20311;-51
2023/11/04 01:33:30;;;;;;;8.40;2.50;;;11.30;58.70;;;;;;5025204;28;20193;-52
2023/11/04 01:35:55;;;;;;;2.47;2.23;;;11.30;58.70;;;;;;5034099;28;20655;-52
2023/11/04 01:38:21;;;;;;;3.40;2.57;;;11.30;58.50;;;;;;5024001;28;20621;-52
2023/11/04 01:40:50;;;;;;;2.77;2.47;;;11.30;58.50;;;;;;5036020;28;20174;-54
2023/11/04 01:43:36;;;;;;;7.30;2.40;;;11.40;58.70;;;;;;5030417;28;20189;-51
2023/11/04 01:46:15;;;;;;;5.43;4.30;;;11.30;58.60;;;;;;5032454;28;20467;-51
2023/11/04 01:48:42;;;;;;;11.00;6.30;;;11.30;58.70;;;;;;5030420;28;20439;-52
2023/11/04 01:51:08;;;;;;;8.30;4.63;;;11.10;58.70;;;;;;5030659;28;20835;-53
2023/11/04 01:53:35;;;;;;;6.53;3.00;;;11.10;58.60;;;;;;5030744;28;20416;-52
2023/11/04 01:56:01;;;;;;;4.53;2.97;;;11.00;58.70;;;;;;5033928;28;20416;-54
2023/11/04 01:58:29;;;;;;;10.37;5.20;;;11.10;58.80;;;;;;5029861;28;20446;-52
2023/11/04 02:00:55;;;;;;;8.67;4.30;;;11.20;58.80;;;;;;5032971;28;20180;-56
2023/11/04 02:03:20;;;;;;;9.17;5.10;;;11.20;58.60;;;;;;5030430;28;20411;-56
2023/11/04 02:05:47;;;;;;;6.67;2.53;;;11.20;58.60;;;;;;5029972;28;21104;-55
2023/11/04 02:08:12;;;;;;;4.87;2.57;;;11.20;58.60;;;;;;5030478;28;20304;-54
2023/11/04 02:10:38;;;;;;;1.77;1.67;;;11.30;58.60;;;;;;5025371;28;20598;-54
2023/11/04 02:13:05;;;;;;;2.27;2.07;;;11.40;58.40;;;;;;5029435;28;20291;-55
2023/11/04 02:15:30;;;;;;;1.83;1.63;;;11.30;58.20;;;;;;5028566;28;20380;-55
2023/11/04 02:17:56;;;;;;;1.53;1.30;;;11.20;58.30;;;;;;5031190;28;20938;-56
2023/11/04 02:20:24;;;;;;;3.07;2.17;;;11.20;58.30;;;;;;5034262;28;21063;-57
2023/11/04 02:22:50;;;;;;;1.77;1.67;;;11.30;58.10;;;;;;5027956;28;20189;-54
2023/11/04 02:25:17;;;;;;;1.87;1.73;;;11.20;58.00;;;;;;5027990;28;20452;-56
2023/11/04 02:27:43;;;;;;;2.00;1.43;;;11.20;58.10;;;;;;5028296;28;20768;-55
2023/11/04 02:30:11;;;;;;;3.60;1.83;;;11.10;57.80;;;;;;5026381;28;20464;-54
2023/11/04 02:32:37;;;;;;;2.53;1.90;;;11.00;58.30;;;;;;5024077;28;20785;-56
2023/11/04 02:35:04;;;;;;;5.47;2.57;;;11.10;58.10;;;;;;5027206;28;20594;-57
2023/11/04 02:37:30;;;;;;;1.90;1.77;;;11.10;58.40;;;;;;5025899;28;20448;-56
2023/11/04 02:39:55;;;;;;;4.13;1.90;;;11.20;58.30;;;;;;5023316;28;20475;-55
2023/11/04 02:42:21;;;;;;;2.60;1.63;;;11.40;58.30;;;;;;5022163;28;20444;-57
2023/11/04 02:44:46;;;;;;;1.40;1.23;;;11.50;58.20;;;;;;5028465;28;20956;-55
2023/11/04 02:47:12;;;;;;;1.97;1.70;;;11.50;58.00;;;;;;5025546;28;20217;-58
2023/11/04 02:49:38;;;;;;;1.47;1.37;;;11.50;58.10;;;;;;5027067;28;20644;-56
2023/11/04 02:52:04;;;;;;;3.00;1.70;;;11.50;57.30;;;;;;5024007;28;20208;-58
2023/11/04 02:54:29;;;;;;;1.83;1.60;;;11.50;57.20;;;;;;5026966;28;20242;-58
2023/11/04 02:56:55;;;;;;;1.37;1.10;;;11.40;57.20;;;;;;5023277;28;20444;-55
2023/11/04 02:59:20;;;;;;;1.60;1.50;;;11.40;57.20;;;;;;5027954;28;20201;-56
2023/11/04 03:01:46;;;;;;;2.13;1.37;;;11.30;57.30;;;;;;5029259;28;20193;-56
2023/11/04 03:04:12;;;;;;;1.77;1.40;;;11.20;57.80;;;;;;5024804;28;20204;-57
2023/11/04 03:06:38;;;;;;;1.97;1.37;;;11.30;57.80;;;;;;5027741;28;20553;-56
2023/11/04 03:09:04;;;;;;;1.80;1.70;;;11.30;57.70;;;;;;5027828;28;20466;-55
2023/11/04 03:11:30;;;;;;;2.20;2.00;;;11.40;57.60;;;;;;5026114;28;20436;-56
2023/11/04 03:13:55;;;;;;;2.57;1.73;;;11.40;57.70;;;;;;5028890;28;20183;-55
2023/11/04 03:16:21;;;;;;;1.30;1.20;;;11.40;57.70;;;;;;5025433;28;20821;-56
2023/11/04 03:18:47;;;;;;;1.30;1.20;;;11.40;57.70;;;;;;5025243;28;20205;-54
2023/11/04 03:21:13;;;;;;;4.90;3.93;;;11.00;58.30;;;;;;5027423;28;20182;-55
2023/11/04 03:23:42;;;;;;;4.00;2.70;;;10.90;58.80;;;;;;5026279;28;20431;-56
2023/11/04 03:26:07;;;;;;;1.50;1.40;;;11.00;58.70;;;;;;5010847;28;20582;-57
2023/11/04 03:28:37;;;;;;;1.90;1.70;;;10.90;58.40;;;;;;5024179;28;20480;-55
2023/11/04 03:31:03;;;;;;;2.10;1.27;;;10.90;58.70;;;;;;5023254;28;20182;-54
2023/11/04 03:33:29;;;;;;;2.17;1.97;;;10.80;58.70;;;;;;5025754;28;20563;-53
2023/11/04 03:35:55;;;;;;;1.47;1.37;;;10.70;59.00;;;;;;5022983;28;21300;-53
2023/11/04 03:38:20;;;;;;;1.43;1.33;;;10.60;59.00;;;;;;5026345;28;20455;-56
2023/11/04 03:40:46;;;;;;;3.17;1.67;;;10.40;59.60;;;;;;5028177;28;20185;-56
2023/11/04 03:43:12;;;;;;;1.70;1.43;;;10.40;59.90;;;;;;5033240;28;20188;-56
2023/11/04 03:45:37;;;;;;;2.10;1.90;;;10.50;59.90;;;;;;5030292;28;20252;-56
2023/11/04 03:48:03;;;;;;;2.23;1.93;;;10.50;59.70;;;;;;5030230;28;20487;-56
2023/11/04 03:50:28;;;;;;;3.03;2.10;;;10.40;59.80;;;;;;5029078;28;20231;-55
2023/11/04 03:52:55;;;;;;;2.10;1.90;;;10.20;59.80;;;;;;5025886;28;20470;-55
2023/11/04 03:55:21;;;;;;;2.13;2.03;;;10.10;60.40;;;;;;5025038;28;20191;-52
2023/11/04 03:57:47;;;;;;;2.90;1.93;;;9.90;62.50;;;;;;5025731;28;20521;-57
2023/11/04 04:00:14;;;;;;;2.50;2.20;;;9.90;62.50;;;;;;5024815;28;20451;-54
2023/11/04 04:02:40;;;;;;;2.37;2.17;;;9.70;63.00;;;;;;5023951;28;20204;-53
2023/11/04 04:05:06;;;;;;;3.30;2.10;;;9.60;63.70;;;;;;5028156;28;20883;-56
2023/11/04 04:07:31;;;;;;;3.73;2.23;;;9.80;63.10;;;;;;5024445;28;20299;-52
2023/11/04 04:09:57;;;;;;;2.43;2.23;;;9.90;62.80;;;;;;5028076;28;20456;-55
2023/11/04 04:12:22;;;;;;;3.60;2.40;;;9.90;62.40;;;;;;5023797;28;20197;-57
2023/11/04 04:14:48;;;;;;;2.67;2.47;;;9.80;62.50;;;;;;5025276;28;20181;-55
2023/11/04 04:17:13;;;;;;;4.30;2.33;;;9.70;63.10;;;;;;5024106;28;20239;-57
2023/11/04 04:19:39;;;;;;;2.50;2.30;;;9.70;63.40;;;;;;5024706;28;20295;-55
2023/11/04 04:22:04;;;;;;;2.67;2.20;;;9.80;63.30;;;;;;5025934;28;20197;-56
2023/11/04 04:24:30;;;;;;;2.47;2.27;;;9.60;63.20;;;;;;5026786;28;20185;-52
2023/11/04 04:26:55;;;;;;;4.03;2.23;;;9.50;63.80;;;;;;5027968;28;20299;-52
2023/11/04 04:29:23;;;;;;;2.60;2.17;;;9.50;64.00;;;;;;5025714;28;20198;-52
2023/11/04 04:31:51;;;;;;;3.00;2.07;;;9.40;64.50;;;;;;5024139;28;20189;-57
2023/11/04 04:34:17;;;;;;;3.00;1.87;;;9.40;64.20;;;;;;5024350;28;20435;-55
2023/11/04 04:36:45;;;;;;;2.60;2.40;;;9.20;64.80;;;;;;5023476;28;20445;-53
2023/11/04 04:39:11;;;;;;;3.60;2.20;;;8.90;65.50;;;;;;5024166;28;20216;-57
2023/11/04 04:41:36;;;;;;;2.40;2.13;;;8.80;66.30;;;;;;5028398;28;20431;-54
2023/11/04 04:44:02;;;;;;;2.53;1.90;;;8.80;66.80;;;;;;5025741;28;20458;-53
2023/11/04 04:46:29;;;;;;;2.93;2.20;;;8.80;66.90;;;;;;5025282;28;20189;-53
2023/11/04 04:48:55;;;;;;;5.20;2.50;;;8.70;67.00;;;;;;5029764;28;20197;-52
2023/11/04 04:51:21;;;;;;;1.90;1.80;;;8.60;67.60;;;;;;5029777;28;20455;-54
2023/11/04 04:53:47;;;;;;;2.07;1.50;;;8.50;68.80;;;;;;5030996;28;20447;-55
2023/11/04 04:56:16;;;;;;;2.80;2.00;;;8.50;68.50;;;;;;5030662;28;20229;-55
2023/11/04 04:58:42;;;;;;;2.13;1.93;;;8.70;67.50;;;;;;5037130;28;20557;-53
2023/11/04 05:01:20;;;;;;;2.07;1.87;;;8.90;67.20;;;;;;5028859;28;20531;-54
2023/11/04 05:03:46;;;;;;;2.10;1.57;;;8.90;67.00;;;;;;5029387;28;20185;-51
2023/11/04 05:06:12;;;;;;;1.67;1.57;;;8.60;67.80;;;;;;5028217;28;20459;-53
2023/11/04 05:08:38;;;;;;;2.40;1.83;;;8.60;68.30;;;;;;5031653;28;20208;-52
2023/11/04 05:11:04;;;;;;;2.93;1.50;;;8.60;68.50;;;;;;5029272;28;20440;-54
2023/11/04 05:13:30;;;;;;;1.70;1.60;;;8.80;67.60;;;;;;5028818;28;20530;-52
2023/11/04 05:15:56;;;;;;;2.30;1.20;;;8.90;67.60;;;;;;5027789;28;20925;-52
2023/11/04 05:18:22;;;;;;;1.70;1.60;;;9.00;66.90;;;;;;5026679;28;20275;-53
2023/11/04 05:20:47;;;;;;;2.00;1.80;;;8.80;67.60;;;;;;5031895;28;20443;-55
2023/11/04 05:23:14;;;;;;;2.43;2.00;;;9.00;67.30;;;;;;5030170;28;20479;-55
2023/11/04 05:25:39;;;;;;;2.43;1.93;;;9.10;66.60;;;;;;5027996;28;20679;-54
2023/11/04 05:28:05;;;;;;;4.40;2.20;;;9.30;65.90;;;;;;5028301;28;20479;-56
2023/11/04 05:30:31;;;;;;;2.93;1.90;;;9.50;65.20;;;;;;5029357;28;20272;-54
2023/11/04 05:32:58;;;;;;;2.83;2.03;;;9.60;64.30;;;;;;5027580;28;20177;-52
2023/11/04 05:35:24;;;;;;;3.10;2.50;;;9.50;64.50;;;;;;5027899;28;20753;-54
2023/11/04 05:37:49;;;;;;;4.80;2.67;;;9.50;64.80;;;;;;5029902;28;20539;-52
2023/11/04 05:40:15;;;;;;;3.97;2.60;;;9.50;64.80;;;;;;5029403;28;20197;-52
2023/11/04 05:42:41;;;;;;;1.67;1.40;;;9.60;64.60;;;;;;5034378;28;20189;-51
2023/11/04 05:45:07;;;;;;;2.63;1.60;;;9.70;64.30;;;;;;5030375;28;21024;-53
2023/11/04 05:47:33;;;;;;;2.63;2.00;;;9.70;64.10;;;;;;5030321;28;20537;-52
2023/11/04 05:50:00;;;;;;;2.90;2.40;;;9.80;64.10;;;;;;5033786;28;20448;-56
2023/11/04 05:52:26;;;;;;;3.20;2.10;;;9.80;63.90;;;;;;5031060;28;20194;-53
2023/11/04 05:54:52;;;;;;;4.13;1.90;;;9.70;63.80;;;;;;5036263;28;20423;-52
2023/11/04 05:57:18;;;;;;;4.23;1.90;;;9.50;64.80;;;;;;5030232;28;20197;-55
2023/11/04 05:59:45;;;;;;;1.43;1.33;;;9.40;65.10;;;;;;5028964;28;20987;-53
2023/11/04 06:02:12;;;;;;;1.60;1.50;;;9.20;65.80;;;;;;5030016;28;20452;-53
2023/11/04 06:04:38;;;;;;;2.10;1.60;;;9.20;66.60;;;;;;5030520;28;20431;-54
2023/11/04 06:07:04;;;;;;;1.67;1.57;;;9.30;66.70;;;;;;5036842;28;20913;-56
2023/11/04 06:09:31;;;;;;;2.37;1.57;;;9.20;66.70;;;;;;5030588;28;20998;-53
2023/11/04 06:12:00;;;;;;;1.50;1.40;;;9.20;66.70;;;;;;5026025;28;20467;-57
2023/11/04 06:14:28;;;;;;;2.77;1.93;;;9.20;66.70;;;;;;5028165;28;20582;-52
2023/11/04 06:16:54;;;;;;;2.73;1.70;;;9.10;66.90;;;;;;5034508;28;20451;-55
2023/11/04 06:19:20;;;;;;;2.50;1.60;;;9.20;67.10;;;;;;5029497;28;20452;-56
2023/11/04 06:21:45;;;;;;;2.63;1.70;;;9.30;67.10;;;;;;5030296;28;20428;-52
2023/11/04 06:24:12;;;;;;;2.63;2.10;;;9.40;66.30;;;;;;5034244;28;20255;-52
2023/11/04 06:26:37;;;;;;;3.70;2.03;;;9.50;65.90;;;;;;5031564;28;20193;-54
2023/11/04 06:29:04;;;;;;;2.83;2.53;;;9.70;65.00;;;;;;5032054;28;20468;-52
2023/11/04 06:31:30;;;;;;;3.50;2.93;;;9.60;65.30;;;;;;5029426;28;20582;-51
2023/11/04 06:33:55;;;;;;;2.40;2.20;;;9.80;64.90;;;;;;5033514;28;20450;-53
2023/11/04 06:36:21;;;;;;;1.80;1.53;;;9.90;64.10;;;;;;5028707;28;20189;-52
2023/11/04 06:38:47;;;;;;;8.00;1.70;;;9.80;64.50;;;;;;5026494;28;20474;-53
2023/11/04 06:41:16;;;;;;;2.00;1.70;;;9.90;68.00;;;;;;5025783;28;20540;-56
2023/11/04 06:43:46;;;;;;;2.77;1.67;;;10.40;68.80;;;;;;5025048;28;20213;-56
2023/11/04 06:46:14;;;;;;;3.00;2.00;;;11.00;65.40;;;;;;5025387;28;20809;-52
2023/11/04 06:48:40;;;;;;;1.83;1.70;;;12.00;61.80;;;;;;5031295;28;21054;-51
2023/11/04 06:51:06;;;;;;;3.00;1.90;;;12.80;59.20;;;;;;5025055;28;20440;-54
2023/11/04 06:53:31;;;;;;;1.63;1.50;;;13.40;57.10;;;;;;5026805;28;20268;-53
2023/11/04 06:55:58;;;;;;;2.70;1.80;;;13.60;55.20;;;;;;5025641;28;20290;-55
2023/11/04 06:58:27;;;;;;;2.40;2.20;;;13.50;55.60;;;;;;5028955;28;20441;-53
2023/11/04 07:00:53;;;;;;;2.80;2.30;;;13.40;56.10;;;;;;5030684;28;20435;-56
2023/11/04 07:03:18;;;;;;;2.60;2.40;;;13.20;55.20;;;;;;5026943;28;20922;-56
2023/11/04 07:05:44;;;;;;;1.80;1.67;;;13.10;55.80;;;;;;5023227;28;20204;-53
2023/11/04 07:08:11;;;;;;;1.90;1.70;;;13.00;56.10;;;;;;5025706;28;20213;-58
2023/11/04 07:10:38;;;;;;;2.50;2.30;;;12.80;55.70;;;;;;5027206;28;22638;-57
2023/11/04 07:13:03;;;;;;;2.00;1.90;;;12.70;57.00;;;;;;5029813;28;20432;-53
2023/11/04 07:15:31;;;;;;;2.30;2.10;;;12.70;57.00;;;;;;5028338;28;20599;-54
2023/11/04 07:17:57;;;;;;;1.90;1.80;;;12.90;57.10;;;;;;5032107;28;20192;-57
2023/11/04 07:20:24;;;;;;;2.30;1.60;;;13.10;56.50;;;;;;5025825;28;20436;-56
2023/11/04 07:22:50;;;;;;;1.80;1.60;;;13.20;56.30;;;;;;5030215;28;20193;-54
2023/11/04 07:25:15;;;;;;;1.60;1.50;;;13.40;56.10;;;;;;5031486;28;20434;-54
2023/11/04 07:27:41;;;;;;;1.77;1.67;;;13.50;55.70;;;;;;5027017;28;20870;-56
2023/11/04 07:30:07;;;;;;;1.77;1.67;;;13.60;55.80;;;;;;5028048;28;20719;-56
2023/11/04 07:32:33;;;;;;;1.80;1.70;;;13.70;55.40;;;;;;5028771;28;20669;-55
2023/11/04 07:34:58;;;;;;;1.60;1.30;;;13.90;55.00;;;;;;5032923;28;20492;-57
2023/11/04 07:37:24;;;;;;;1.53;1.43;;;13.90;55.10;;;;;;5031060;28;20885;-58
2023/11/04 07:39:50;;;;;;;1.60;1.50;;;13.90;54.90;;;;;;5030782;28;20676;-59
2023/11/04 07:42:15;;;;;;;1.73;1.50;;;13.90;54.70;;;;;;5027417;28;20275;-57
2023/11/04 07:44:41;;;;;;;2.20;1.57;;;13.90;54.80;;;;;;5032666;28;20542;-56
2023/11/04 07:47:06;;;;;;;2.07;1.87;;;14.10;55.60;;;;;;5027766;28;20209;-52
2023/11/04 07:49:32;;;;;;;3.10;1.57;;;14.10;55.60;;;;;;5028741;28;20564;-55
2023/11/04 07:51:59;;;;;;;2.37;1.97;;;14.10;55.40;;;;;;5029292;28;20605;-57
2023/11/04 07:54:25;;;;;;;1.47;1.37;;;14.00;55.60;;;;;;5029180;28;20220;-56
2023/11/04 07:56:51;;;;;;;2.47;1.80;;;13.90;55.30;;;;;;5026153;28;20506;-52
2023/11/04 07:59:16;;;;;;;1.33;1.23;;;13.90;55.60;;;;;;5025811;28;20471;-52
2023/11/04 08:01:43;;;;;;;1.80;1.40;;;13.90;56.20;;;;;;5024065;28;20280;-53
2023/11/04 08:04:08;;;;;;;1.70;1.60;;;13.80;56.10;;;;;;5028551;28;20189;-54
2023/11/04 08:06:35;;;;;;;2.03;1.47;;;13.80;56.40;;;;;;5027726;28;20424;-57
2023/11/04 08:09:01;;;;;;;1.33;0.90;;;13.30;55.60;;;;;;5028890;28;20209;-52
2023/11/04 08:11:27;;;;;;;2.17;1.87;;;13.20;57.60;;;;;;5029092;28;20851;-54
2023/11/04 08:13:52;;;;;;;1.40;1.30;;;13.10;57.50;;;;;;5031866;28;20511;-52
2023/11/04 08:16:18;;;;;;;1.40;1.23;;;13.10;57.70;;;;;;5030809;28;20193;-56
2023/11/04 08:18:45;;;;;;;1.40;1.30;;;13.10;57.60;;;;;;5029463;28;20618;-55
2023/11/04 08:21:15;;;;;;;1.87;1.53;;;13.00;57.50;;;;;;5031332;28;20661;-55
2023/11/04 08:23:40;;;;;;;2.60;1.50;;;12.80;58.30;;;;;;5028140;28;20515;-53
2023/11/04 08:26:06;;;;;;;1.80;1.70;;;12.70;59.00;;;;;;5034731;28;20503;-54
2023/11/04 08:28:32;;;;;;;1.43;1.20;;;12.70;59.30;;;;;;5029620;28;20213;-55
2023/11/04 08:30:58;;;;;;;1.50;1.40;;;13.00;58.60;;;;;;5027370;28;20687;-59
2023/11/04 08:33:23;;;;;;;2.33;2.13;;;13.10;58.50;;;;;;5028537;28;20432;-54
2023/11/04 08:35:49;;;;;;;1.80;1.70;;;13.20;58.40;;;;;;5027836;28;20220;-52
2023/11/04 08:38:16;;;;;;;1.77;1.67;;;12.90;58.70;;;;;;5027674;28;20288;-53
2023/11/04 08:40:42;;;;;;;1.63;1.53;;;12.60;59.80;;;;;;5030681;28;20234;-56
2023/11/04 08:43:07;;;;;;;1.20;1.10;;;12.90;60.00;;;;;;5034066;28;20423;-53
2023/11/04 08:45:33;;;;;;;1.80;1.33;;;12.90;58.80;;;;;;5030098;28;20634;-53
2023/11/04 08:47:58;;;;;;;1.33;1.10;;;13.00;58.70;;;;;;5026951;28;20636;-52
2023/11/04 08:50:24;;;;;;;1.20;1.20;;;13.10;58.10;;;;;;5027641;28;20544;-54
2023/11/04 08:52:49;;;;;;;1.60;1.10;;;13.10;57.80;;;;;;5028271;28;20169;-57
2023/11/04 08:55:15;;;;;;;1.50;1.33;;;13.00;58.30;;;;;;5030036;28;20196;-54
2023/11/04 08:57:40;;;;;;;1.80;1.17;;;13.20;58.40;;;;;;5034909;28;20691;-57
2023/11/04 09:00:08;;;;;;;1.20;1.10;;;13.30;58.30;;;;;;5034293;28;20713;-52
2023/11/04 09:02:34;;;;;;;1.10;1.00;;;13.50;57.00;;;;;;5030881;28;20185;-58
2023/11/04 09:05:00;;;;;;;1.90;1.17;;;13.50;57.20;;;;;;5030053;28;20964;-57
2023/11/04 09:07:27;;;;;;;2.00;1.33;;;13.30;56.70;;;;;;5024942;28;20634;-55
2023/11/04 09:09:53;;;;;;;1.23;1.13;;;13.50;56.80;;;;;;5028365;28;20463;-57
2023/11/04 09:12:18;;;;;;;2.53;1.40;;;13.40;56.70;;;;;;5025559;28;20949;-55
2023/11/04 09:14:44;;;;;;;1.57;1.47;;;13.50;57.10;;;;;;5029276;28;20186;-52
2023/11/04 09:17:09;;;;;;;2.67;1.70;;;13.60;56.90;;;;;;5028735;28;20273;-56
2023/11/04 09:19:35;;;;;;;2.10;1.50;;;13.60;57.00;;;;;;5024434;28;20229;-58
2023/11/04 09:22:00;;;;;;;1.17;1.07;;;13.80;57.10;;;;;;5024579;28;20540;-56
2023/11/04 09:24:26;;;;;;;2.37;1.60;;;14.00;56.60;;;;;;5023064;28;20193;-53
2023/11/04 09:26:52;;;;;;;2.07;1.70;;;14.30;55.70;;;;;;5028555;28;20213;-54
2023/11/04 09:29:17;;;;;;;1.50;1.40;;;14.40;55.30;;;;;;5023434;28;20205;-56
2023/11/04 09:31:43;;;;;;;2.23;1.80;;;14.40;55.50;;;;;;5026401;28;20600;-55
2023/11/04 09:34:09;;;;;;;2.33;1.90;;;14.30;54.90;;;;;;5018879;28;20719;-55
2023/11/04 09:36:35;;;;;;;1.70;1.60;;;14.20;55.60;;;;;;5026860;28;20451;-57
2023/11/04 09:39:01;;;;;;;4.50;1.60;;;14.40;56.40;;;;;;5033083;28;20204;-54
2023/11/04 09:41:26;;;;;;;2.33;1.50;;;14.60;55.20;;;;;;5031869;28;20440;-55
2023/11/04 09:43:52;;;;;;;1.70;1.50;;;14.70;55.50;;;;;;5032251;28;20230;-54
2023/11/04 09:46:18;;;;;;;2.00;1.50;;;15.00;54.30;;;;;;5024576;28;20250;-57
2023/11/04 09:48:44;;;;;;;2.13;1.80;;;15.00;53.70;;;;;;5027700;28;20483;-53
2023/11/04 09:51:13;;;;;;;1.60;1.37;;;14.90;54.60;;;;;;5031704;28;20188;-56
2023/11/04 09:53:46;;;;;;;1.50;1.20;;;15.20;54.00;;;;;;5030426;28;20181;-57
2023/11/04 09:56:12;;;;;;;1.57;1.17;;;15.20;51.60;;;;;;5025103;28;20437;-54
2023/11/04 09:58:39;;;;;;;1.80;1.40;;;15.20;52.50;;;;;;5033307;28;20471;-58
2023/11/04 10:01:05;;;;;;;1.13;1.03;;;15.30;52.30;;;;;;5026773;28;20197;-56
2023/11/04 10:03:31;;;;;;;1.20;1.10;;;15.50;51.30;;;;;;5029039;28;20456;-57
2023/11/04 10:05:56;;;;;;;4.30;1.20;;;15.10;50.60;;;;;;5023333;28;20456;-52
2023/11/04 10:08:24;;;;;;;1.90;1.17;;;14.80;50.50;;;;;;5021785;28;20228;-58
2023/11/04 10:10:50;;;;;;;1.13;0.80;;;15.10;51.70;;;;;;5027798;28;20209;-59
2023/11/04 10:13:16;;;;;;;0.70;0.70;;;15.50;50.60;;;;;;5029499;28;20767;-54
2023/11/04 10:15:41;;;;;;;1.07;0.97;;;16.00;49.70;;;;;;5027134;28;20699;-53
2023/11/04 10:18:07;;;;;;;2.07;0.93;;;15.70;49.50;;;;;;5019103;28;20448;-58
2023/11/04 10:20:33;;;;;;;1.57;1.07;;;16.00;49.30;;;;;;5015582;28;20192;-57
2023/11/04 10:22:59;;;;;;;1.27;0.97;;;15.70;48.80;;;;;;5022369;28;20192;-57
2023/11/04 10:25:26;;;;;;;2.57;1.10;;;15.80;49.20;;;;;;5021298;28;21001;-56
2023/11/04 10:27:52;;;;;;;1.00;0.90;;;16.00;49.00;;;;;;5023001;28;21208;-58
2023/11/04 10:30:18;;;;;;;1.40;0.90;;;15.90;48.70;;;;;;5023483;28;20444;-56
2023/11/04 10:32:48;;;;;;;1.47;1.10;;;15.70;47.90;;;;;;5025953;28;20477;-55
2023/11/04 10:35:18;;;;;;;2.27;1.20;;;15.50;48.90;;;;;;5022092;28;20202;-53
2023/11/04 10:37:48;;;;;;;5.83;0.97;;;15.50;49.40;;;;;;5018461;28;20438;-56
2023/11/04 10:40:14;;;;;;;0.80;0.80;;;15.70;49.00;;;;;;5030923;28;20468;-56
2023/11/04 10:42:48;;;;;;;1.03;0.93;;;15.80;48.50;;;;;;5036576;28;20420;-54
2023/11/04 10:45:19;;;;;;;6.57;1.30;;;15.90;48.40;;;;;;5029798;28;20543;-56
2023/11/04 10:48:05;;;;;;;2.67;1.27;;;15.90;48.10;;;;;;5023537;28;20546;-55
2023/11/04 10:50:39;;;;;;;1.57;0.70;;;15.30;48.50;;;;;;5026663;28;20531;-58
2023/11/04 10:53:29;;;;;;;1.43;1.27;;;15.30;48.90;;;;;;5026616;28;20458;-57
2023/11/04 10:56:08;;;;;;;0.87;0.80;;;15.50;49.00;;;;;;5021241;28;21041;-53
2023/11/04 10:58:44;;;;;;;0.90;0.70;;;15.40;47.40;;;;;;5011098;28;20465;-55
2023/11/04 11:01:12;;;;;;;1.30;0.80;;;15.10;48.20;;;;;;5024568;28;20443;-55
2023/11/04 11:03:38;;;;;;;1.10;1.00;;;15.20;47.70;;;;;;5029037;28;20511;-57
2023/11/04 11:06:05;;;;;;;2.73;0.80;;;15.30;48.20;;;;;;5030946;28;20457;-60
2023/11/04 11:08:31;;;;;;;1.00;0.90;;;15.20;48.10;;;;;;5031277;28;20478;-53
2023/11/04 11:11:09;;;;;;;1.57;0.83;;;15.00;48.20;;;;;;5026559;28;20458;-57
2023/11/04 11:13:36;;;;;;;0.97;0.87;;;15.10;48.00;;;;;;5022853;28;20412;-57
2023/11/04 11:16:02;;;;;;;0.87;0.80;;;15.10;48.60;;;;;;5023666;28;20827;-56
2023/11/04 11:18:29;;;;;;;0.80;0.70;;;15.30;48.50;;;;;;5027954;28;20472;-56
2023/11/04 11:20:55;;;;;;;1.03;0.93;;;15.20;47.60;;;;;;5024059;28;20451;-53
2023/11/04 11:23:28;;;;;;;1.00;0.90;;;15.30;48.00;;;;;;5029440;28;20444;-54
2023/11/04 11:26:04;;;;;;;1.87;0.87;;;15.50;47.70;;;;;;5029949;28;20190;-53
2023/11/04 11:28:38;;;;;;;0.80;0.70;;;15.50;47.90;;;;;;5035106;28;20479;-55
2023/11/04 11:31:04;;;;;;;11.40;1.63;;;15.50;47.70;;;;;;5016663;28;20439;-56
2023/11/04 11:33:31;;;;;;;3.53;1.00;;;15.80;48.00;;;;;;5022685;28;20965;-53
2023/11/04 11:35:58;;;;;;;1.73;0.70;;;16.00;47.20;;;;;;5016387;28;20598;-54
2023/11/04 11:38:31;;;;;;;0.80;0.80;;;15.90;46.30;;;;;;5028198;28;20811;-53
2023/11/04 11:41:08;;;;;;;0.77;0.67;;;15.80;47.10;;;;;;5023340;28;20513;-54
2023/11/04 11:43:34;;;;;;;0.90;0.73;;;15.90;46.90;;;;;;5018069;28;20436;-52
2023/11/04 11:46:04;;;;;;;0.60;0.60;;;15.70;46.20;;;;;;5018608;28;20458;-58
2023/11/04 11:48:35;;;;;;;0.73;0.70;;;15.60;46.30;;;;;;5016834;28;20507;-55
2023/11/04 11:51:00;;;;;;;0.70;0.70;;;15.70;46.30;;;;;;5018524;28;20530;-54
2023/11/04 11:53:30;;;;;;;0.90;0.90;;;15.70;46.20;;;;;;5030132;28;20527;-55
2023/11/04 11:55:59;;;;;;;0.60;0.60;;;15.60;46.00;;;;;;5011069;28;20194;-53
2023/11/04 11:58:26;;;;;;;1.67;0.70;;;15.60;46.00;;;;;;5011633;28;20452;-51
2023/11/04 12:00:52;;;;;;;0.90;0.80;;;15.50;46.30;;;;;;5024944;28;21102;-55
2023/11/04 12:03:17;;;;;;;0.70;0.70;;;15.30;46.70;;;;;;5017816;28;20453;-54
2023/11/04 12:05:44;;;;;;;0.90;0.70;;;15.40;47.00;;;;;;5021733;28;20196;-54
2023/11/04 12:08:10;;;;;;;0.80;0.77;;;15.60;46.60;;;;;;5025320;28;20222;-53
2023/11/04 12:10:36;;;;;;;1.20;1.00;;;15.60;46.20;;;;;;5026677;28;20444;-53
2023/11/04 12:13:01;;;;;;;0.90;0.90;;;15.70;46.30;;;;;;5026585;28;20230;-54
2023/11/04 12:15:27;;;;;;;1.17;1.00;;;15.60;45.60;;;;;;5016782;28;20247;-51
2023/11/04 12:17:58;;;;;;;1.03;0.97;;;15.60;46.00;;;;;;5028669;28;20185;-54
2023/11/04 12:20:26;;;;;;;2.80;1.37;;;15.50;45.40;;;;;;5024553;28;20976;-52
2023/11/04 12:22:54;;;;;;;1.10;1.00;;;15.60;45.10;;;;;;5015537;28;20569;-57
2023/11/04 12:25:21;;;;;;;0.80;0.73;;;15.60;45.20;;;;;;5021074;28;20447;-52
2023/11/04 12:27:47;;;;;;;1.20;0.63;;;15.70;45.50;;;;;;5019314;28;20467;-54
2023/11/04 12:30:16;;;;;;;0.83;0.80;;;15.60;45.20;;;;;;5020082;28;20637;-54
2023/11/04 12:32:42;;;;;;;0.90;0.80;;;15.40;44.90;;;;;;5015554;28;20945;-52
2023/11/04 12:35:08;;;;;;;0.77;0.77;;;15.50;44.70;;;;;;5018433;28;20440;-58
2023/11/04 12:37:34;;;;;;;0.90;0.90;;;15.50;44.10;;;;;;5027467;28;20190;-52
2023/11/04 12:40:00;;;;;;;0.80;0.80;;;15.30;43.90;;;;;;5020281;28;20458;-55
2023/11/04 12:42:26;;;;;;;0.60;0.60;;;15.30;44.30;;;;;;5029122;28;20508;-54
2023/11/04 12:44:57;;;;;;;0.93;0.80;;;14.70;44.30;;;;;;5023193;28;20668;-53